createdAt,value
2017-06-29T00:01:17.901Z,82.90
2017-06-29T00:03:47.842Z,83.60
2017-06-29T00:06:17.962Z,83.10
2017-06-29T00:08:45.627Z,82.80
2017-06-29T00:11:13.108Z,82.80
2017-06-29T00:13:41.329Z,82.80
2017-06-29T00:16:09.487Z,83.20
2017-06-29T00:18:42.784Z,83.00
2017-06-29T00:21:14.558Z,82.60
2017-06-29T00:26:18.302Z,82.80
2017-06-29T00:28:45.801Z,82.70
2017-06-29T00:31:33.796Z,82.50
2017-06-29T00:34:02.089Z,82.20
2017-06-29T00:36:37.846Z,82.70
2017-06-29T00:39:11.233Z,82.60
2017-06-29T00:41:45.496Z,82.50
2017-06-29T00:44:13.186Z,82.90
2017-06-29T00:46:42.066Z,83.30
2017-06-29T00:49:09.776Z,83.50
2017-06-29T00:51:37.958Z,83.50
2017-06-29T00:54:06.205Z,82.80
2017-06-29T00:56:34.659Z,83.20
2017-06-29T00:59:02.277Z,83.80
2017-06-29T01:01:31.609Z,83.70
2017-06-29T01:03:59.123Z,83.80
2017-06-29T01:06:26.587Z,83.70
2017-06-29T01:08:54.756Z,84.10
2017-06-29T01:11:23.065Z,84.30
2017-06-29T01:13:52.769Z,84.60
2017-06-29T01:16:20.512Z,83.70
2017-06-29T01:18:48.086Z,83.60
2017-06-29T01:21:18.544Z,83.70
2017-06-29T01:23:47.868Z,82.90
2017-06-29T01:26:23.617Z,83.30
2017-06-29T01:28:52.680Z,83.10
2017-06-29T01:31:21.580Z,83.00
2017-06-29T01:33:49.269Z,83.40
2017-06-29T01:36:19.960Z,83.70
2017-06-29T01:38:48.814Z,84.30
2017-06-29T01:41:16.337Z,84.00
2017-06-29T01:43:46.247Z,83.60
2017-06-29T01:46:16.635Z,83.50
2017-06-29T01:48:48.386Z,83.50
2017-06-29T01:51:17.389Z,83.00
2017-06-29T01:53:45.028Z,82.90
2017-06-29T01:56:15.467Z,83.00
2017-06-29T01:58:43.896Z,83.10
2017-06-29T02:01:13.205Z,82.60
2017-06-29T02:03:46.870Z,82.30
2017-06-29T02:06:16.735Z,82.30
2017-06-29T02:08:44.533Z,82.80
2017-06-29T02:11:13.878Z,82.70
2017-06-29T02:13:44.095Z,82.10
2017-06-29T02:16:13.308Z,81.90
2017-06-29T02:18:40.786Z,81.60
2017-06-29T02:21:10.543Z,81.60
2017-06-29T02:23:38.832Z,81.20
2017-06-29T02:26:06.566Z,81.20
2017-06-29T02:28:34.047Z,81.20
2017-06-29T02:31:01.498Z,80.90
2017-06-29T02:33:29.611Z,80.90
2017-06-29T02:35:57.196Z,80.50
2017-06-29T02:38:27.723Z,80.60
2017-06-29T02:40:57.191Z,80.30
2017-06-29T02:43:24.857Z,80.20
2017-06-29T02:45:52.422Z,79.80
2017-06-29T02:48:20.790Z,80.10
2017-06-29T02:50:51.394Z,80.10
2017-06-29T02:53:22.508Z,79.60
2017-06-29T02:55:51.044Z,79.60
2017-06-29T02:58:19.261Z,79.60
2017-06-29T03:00:47.865Z,79.70
2017-06-29T03:03:19.521Z,80.30
2017-06-29T03:05:49.496Z,80.00
2017-06-29T03:08:18.717Z,80.70
2017-06-29T03:10:53.906Z,80.20
2017-06-29T03:18:40.154Z,80.00
2017-06-29T03:21:08.004Z,80.00
2017-06-29T03:23:37.009Z,79.50
2017-06-29T03:26:05.025Z,79.80
2017-06-29T03:28:34.437Z,80.00
2017-06-29T03:31:02.398Z,80.40
2017-06-29T03:33:32.948Z,80.50
2017-06-29T03:36:01.431Z,80.50
2017-06-29T03:38:29.195Z,80.10
2017-06-29T03:40:56.901Z,79.90
2017-06-29T03:43:24.604Z,80.10
2017-06-29T03:45:52.231Z,79.60
2017-06-29T03:48:19.710Z,79.60
2017-06-29T03:50:47.271Z,79.30
2017-06-29T03:53:18.531Z,79.50
2017-06-29T03:55:46.032Z,79.10
2017-06-29T03:58:13.654Z,79.60
2017-06-29T04:00:41.153Z,80.00
2017-06-29T04:03:08.787Z,80.00
2017-06-29T04:05:36.420Z,79.80
2017-06-29T04:08:04.767Z,79.30
2017-06-29T04:10:33.488Z,79.10
2017-06-29T04:13:01.050Z,78.30
2017-06-29T04:15:32.555Z,78.30
2017-06-29T04:18:03.701Z,77.80
2017-06-29T04:20:32.468Z,77.80
2017-06-29T04:23:00.568Z,77.60
2017-06-29T04:25:29.742Z,77.60
2017-06-29T04:28:00.374Z,77.70
2017-06-29T04:30:29.976Z,77.10
2017-06-29T04:33:12.445Z,77.00
2017-06-29T04:35:40.967Z,77.10
2017-06-29T04:38:08.647Z,77.10
2017-06-29T04:40:37.085Z,76.70
2017-06-29T04:43:05.401Z,76.40
2017-06-29T04:45:34.073Z,76.20
2017-06-29T04:48:03.158Z,76.30
2017-06-29T04:50:40.018Z,75.80
2017-06-29T04:53:08.885Z,74.70
2017-06-29T04:55:37.308Z,74.30
2017-06-29T04:58:08.269Z,73.50
2017-06-29T05:00:38.972Z,72.90
2017-06-29T05:03:19.004Z,72.80
2017-06-29T05:05:49.589Z,72.20
2017-06-29T05:10:58.011Z,71.80
2017-06-29T05:13:30.553Z,71.40
2017-06-29T05:16:01.586Z,72.10
2017-06-29T05:18:33.252Z,71.80
2017-06-29T05:23:57.400Z,72.40
2017-06-29T05:26:27.603Z,72.40
2017-06-29T05:29:08.786Z,72.20
2017-06-29T05:34:21.731Z,72.10
2017-06-29T05:42:21.681Z,72.50
2017-06-29T05:47:31.200Z,73.60
2017-06-29T06:07:52.196Z,73.40
2017-06-29T06:16:29.452Z,74.20
2017-06-29T06:24:59.820Z,72.20
2017-06-29T06:30:21.272Z,71.00
2017-06-29T07:13:49.973Z,74.20
2017-06-29T07:16:22.846Z,75.50
2017-06-29T07:21:35.146Z,75.00
2017-06-29T07:24:33.006Z,75.50
2017-06-29T07:27:14.201Z,75.90
2017-06-29T07:38:21.776Z,73.90
2017-06-29T07:54:44.271Z,75.50
2017-06-29T08:00:12.585Z,73.30
2017-06-29T08:11:26.144Z,71.20
2017-06-29T08:13:59.182Z,71.60
2017-06-29T08:22:17.164Z,69.20
2017-06-29T08:28:06.819Z,67.20
2017-06-29T08:30:36.929Z,67.20
2017-06-29T08:35:55.778Z,65.00
2017-06-29T08:38:34.377Z,63.10
2017-06-29T08:43:56.808Z,60.60
2017-06-29T08:55:09.199Z,60.50
2017-06-29T09:06:30.861Z,62.20
2017-06-29T09:09:09.995Z,62.10
2017-06-29T09:14:55.834Z,62.50
2017-06-29T09:17:44.344Z,62.10
2017-06-29T09:35:49.926Z,62.30
2017-06-29T10:25:24.275Z,58.10
2017-06-29T10:33:42.405Z,52.70
2017-06-29T10:41:49.099Z,51.30
2017-06-29T10:44:33.167Z,52.50
2017-06-29T10:47:05.578Z,53.10
2017-06-29T10:49:36.355Z,54.20
2017-06-29T11:01:08.483Z,57.10
2017-06-29T11:03:43.443Z,57.40
2017-06-29T11:14:48.943Z,57.60
2017-06-29T11:38:46.196Z,53.00
2017-06-29T11:49:52.808Z,53.30
2017-06-29T11:52:33.881Z,52.40
2017-06-29T11:58:03.943Z,51.60
2017-06-29T12:00:45.461Z,51.30
2017-06-29T12:03:27.562Z,50.80
2017-06-29T12:06:07.039Z,51.20
2017-06-29T12:08:35.877Z,51.30
2017-06-29T12:13:45.609Z,51.60
2017-06-29T12:16:13.483Z,51.20
2017-06-29T12:18:41.995Z,51.10
2017-06-29T12:21:10.546Z,50.90
2017-06-29T12:23:38.259Z,50.30
2017-06-29T12:26:08.291Z,49.90
2017-06-29T12:28:36.918Z,50.10
2017-06-29T12:31:12.482Z,49.20
2017-06-29T12:33:43.216Z,49.50
2017-06-29T12:36:15.377Z,49.70
2017-06-29T12:38:46.976Z,49.60
2017-06-29T12:41:16.623Z,50.10
2017-06-29T12:43:46.102Z,50.30
2017-06-29T12:46:31.941Z,49.80
2017-06-29T12:49:04.155Z,49.00
2017-06-29T12:51:34.016Z,49.50
2017-06-29T12:56:53.620Z,49.90
2017-06-29T12:59:29.621Z,50.40
2017-06-29T13:02:02.570Z,49.50
2017-06-29T13:07:18.917Z,50.80
2017-06-29T13:12:38.604Z,49.40
2017-06-29T13:21:25.546Z,48.70
2017-06-29T14:47:00.973Z,48.50
2017-06-29T14:52:26.892Z,50.70
2017-06-29T14:54:56.766Z,51.20
2017-06-29T15:00:15.669Z,50.80
2017-06-29T15:02:45.455Z,50.50
2017-06-29T15:08:02.890Z,49.10
2017-06-29T15:10:33.648Z,49.10
2017-06-29T15:15:52.881Z,48.90
2017-06-29T15:21:11.259Z,48.30
2017-06-29T15:23:44.212Z,48.00
2017-06-29T15:26:30.483Z,47.80
2017-06-29T15:29:04.553Z,46.80
2017-06-29T15:31:48.328Z,47.10
2017-06-29T15:34:27.307Z,46.90
2017-06-29T15:37:00.598Z,47.10
2017-06-29T15:42:16.823Z,47.20
2017-06-29T15:48:09.848Z,47.60
2017-06-29T15:53:43.475Z,47.90
2017-06-29T15:56:16.008Z,47.60
2017-06-29T15:58:44.565Z,48.00
2017-06-29T16:01:15.886Z,48.40
2017-06-29T16:03:47.472Z,47.90
2017-06-29T16:06:18.998Z,47.90
2017-06-29T16:08:48.277Z,48.50
2017-06-29T16:11:20.664Z,48.30
2017-06-29T16:13:48.447Z,48.80
2017-06-29T16:16:17.561Z,48.70
2017-06-29T16:18:45.293Z,48.90
2017-06-29T16:21:13.106Z,48.60
2017-06-29T16:23:44.614Z,48.70
2017-06-29T16:26:12.474Z,48.70
2017-06-29T16:28:41.261Z,49.20
2017-06-29T16:31:09.249Z,49.90
2017-06-29T16:33:41.196Z,50.00
2017-06-29T16:36:09.996Z,50.10
2017-06-29T16:38:37.604Z,50.10
2017-06-29T16:41:05.227Z,50.20
2017-06-29T16:43:36.001Z,50.30
2017-06-29T16:46:03.729Z,50.00
2017-06-29T16:48:31.934Z,50.30
2017-06-29T16:50:59.564Z,50.60
2017-06-29T16:53:36.082Z,50.10
2017-06-29T16:56:04.720Z,50.50
2017-06-29T17:01:09.561Z,51.00
2017-06-29T17:03:41.446Z,51.00
2017-06-29T17:06:09.892Z,51.10
2017-06-29T17:08:37.480Z,51.20
2017-06-29T17:11:08.351Z,50.70
2017-06-29T17:13:41.010Z,51.00
2017-06-29T17:16:13.106Z,51.30
2017-06-29T17:18:42.335Z,51.60
2017-06-29T17:21:10.575Z,51.60
2017-06-29T17:23:38.794Z,51.30
2017-06-29T17:28:57.460Z,51.70
2017-06-29T17:31:28.193Z,51.60
2017-06-29T17:33:57.922Z,51.60
2017-06-29T17:36:26.520Z,51.50
2017-06-29T17:38:54.750Z,51.60
2017-06-29T17:41:26.942Z,51.60
2017-06-29T17:43:54.884Z,51.70
2017-06-29T17:46:23.694Z,52.00
2017-06-29T17:48:53.116Z,51.90
2017-06-29T17:51:21.887Z,51.70
2017-06-29T17:53:49.837Z,52.30
2017-06-29T17:56:21.298Z,52.30
2017-06-29T17:58:54.610Z,52.30
2017-06-29T18:01:26.596Z,52.10
2017-06-29T18:03:55.375Z,52.10
2017-06-29T18:06:33.724Z,52.10
2017-06-29T18:09:04.790Z,52.50
2017-06-29T18:11:32.536Z,52.50
2017-06-29T18:14:00.642Z,52.80
2017-06-29T18:16:32.591Z,52.50
2017-06-29T18:21:41.967Z,52.70
2017-06-29T18:24:09.940Z,52.80
2017-06-29T18:26:40.133Z,53.00
2017-06-29T18:29:09.620Z,53.30
2017-06-29T18:31:52.212Z,53.10
2017-06-29T18:34:21.191Z,53.30
2017-06-29T18:36:49.875Z,53.60
2017-06-29T18:39:19.390Z,53.80
2017-06-29T18:41:47.027Z,53.80
2017-06-29T18:44:21.058Z,54.00
2017-06-29T18:46:48.992Z,54.10
2017-06-29T18:49:18.473Z,54.40
2017-06-29T18:51:46.493Z,54.60
2017-06-29T18:54:14.139Z,54.80
2017-06-29T18:56:43.364Z,55.20
2017-06-29T18:59:11.058Z,55.20
2017-06-29T19:01:39.692Z,55.60
2017-06-29T19:04:08.190Z,56.00
2017-06-29T19:06:42.705Z,55.90
2017-06-29T19:09:10.876Z,56.10
2017-06-29T19:11:38.352Z,56.20
2017-06-29T19:14:07.045Z,55.50
2017-06-29T19:16:34.784Z,55.90
2017-06-29T19:21:46.825Z,55.50
2017-06-29T19:24:14.766Z,55.40
2017-06-29T19:26:44.818Z,55.40
2017-06-29T19:29:13.381Z,55.50
2017-06-29T19:31:41.604Z,55.30
2017-06-29T19:34:11.902Z,55.50
2017-06-29T19:36:39.575Z,55.70
2017-06-29T19:39:07.884Z,56.00
2017-06-29T19:41:35.798Z,56.00
2017-06-29T19:44:25.851Z,55.90
2017-06-29T19:46:53.578Z,56.00
2017-06-29T19:49:21.311Z,56.20
2017-06-29T19:51:49.286Z,56.50
2017-06-29T19:54:17.867Z,56.30
2017-06-29T19:56:45.528Z,56.20
2017-06-29T19:59:13.189Z,56.30
2017-06-29T20:01:41.911Z,56.40
2017-06-29T20:04:09.572Z,56.60
2017-06-29T20:06:37.175Z,56.60
2017-06-29T20:09:04.893Z,56.60
2017-06-29T20:11:32.755Z,56.70
2017-06-29T20:14:00.384Z,56.70
2017-06-29T20:16:28.280Z,56.70
2017-06-29T20:18:56.799Z,56.70
2017-06-29T20:21:26.745Z,57.30
2017-06-29T20:23:55.846Z,57.00
2017-06-29T20:26:25.958Z,56.60
2017-06-29T20:28:56.086Z,56.40
2017-06-29T20:31:24.794Z,56.40
2017-06-29T20:33:52.795Z,56.10
2017-06-29T20:36:20.864Z,56.10
2017-06-29T20:38:51.336Z,56.30
2017-06-29T20:41:25.291Z,56.10
2017-06-29T20:46:34.340Z,56.10
2017-06-29T20:49:09.877Z,56.40
2017-06-29T20:51:37.655Z,55.80
2017-06-29T20:54:10.205Z,56.10
2017-06-29T20:56:41.985Z,56.30
2017-06-29T20:59:13.911Z,56.20
2017-06-29T21:01:57.746Z,56.30
2017-06-29T21:07:09.114Z,56.50
2017-06-29T21:09:48.715Z,56.70
2017-06-29T21:12:16.373Z,57.20
2017-06-29T21:14:54.971Z,57.90
2017-06-29T21:17:22.615Z,58.80
2017-06-29T21:19:54.815Z,59.40
2017-06-29T21:22:22.496Z,59.70
2017-06-29T21:24:52.528Z,60.20
2017-06-29T21:27:20.387Z,60.70
2017-06-29T21:29:48.162Z,61.20
2017-06-29T21:32:16.690Z,62.50
2017-06-29T21:34:44.286Z,61.80
2017-06-29T21:37:12.604Z,62.10
2017-06-29T21:39:40.158Z,62.40
2017-06-29T21:42:07.774Z,62.70
2017-06-29T21:44:35.757Z,62.70
2017-06-29T21:47:03.425Z,63.00
2017-06-29T21:49:30.980Z,63.10
2017-06-29T21:51:58.534Z,63.30
2017-06-29T21:54:26.003Z,63.40
2017-06-29T21:56:54.255Z,64.20
2017-06-29T21:59:22.449Z,64.20
2017-06-29T22:01:50.894Z,64.50
2017-06-29T22:04:18.369Z,65.10
2017-06-29T22:06:46.443Z,65.20
2017-06-29T22:09:14.132Z,65.30
2017-06-29T22:11:41.649Z,65.50
2017-06-29T22:14:09.255Z,65.80
2017-06-29T22:16:36.993Z,66.10
2017-06-29T22:19:04.568Z,66.00
2017-06-29T22:21:32.137Z,66.00
2017-06-29T22:23:59.717Z,66.10
2017-06-29T22:26:30.035Z,66.30
2017-06-29T22:28:58.337Z,66.10
2017-06-29T22:31:26.030Z,66.10
2017-06-29T22:33:56.360Z,66.20
2017-06-29T22:36:39.160Z,66.20
2017-06-29T22:39:09.095Z,67.20
2017-06-29T22:41:43.686Z,66.70
2017-06-29T22:44:11.348Z,66.80
2017-06-29T22:46:40.169Z,67.10
2017-06-29T22:49:09.044Z,67.20
2017-06-29T22:51:36.738Z,67.70
2017-06-29T22:54:05.341Z,67.80
2017-06-29T22:56:36.639Z,67.80
2017-06-29T22:59:07.315Z,68.00
2017-06-29T23:01:35.668Z,68.60
2017-06-29T23:04:05.601Z,68.60
2017-06-29T23:06:33.280Z,68.40
2017-06-29T23:09:02.071Z,68.60
2017-06-29T23:11:30.328Z,68.80
2017-06-29T23:13:58.366Z,68.70
2017-06-29T23:16:27.029Z,68.30
2017-06-29T23:18:55.239Z,68.20
2017-06-29T23:21:22.847Z,68.30
2017-06-29T23:23:51.233Z,68.00
2017-06-29T23:26:18.813Z,67.80
2017-06-29T23:28:46.400Z,68.00
2017-06-29T23:31:14.135Z,68.00
2017-06-29T23:33:41.747Z,67.90
2017-06-29T23:36:10.739Z,67.90
2017-06-29T23:38:38.276Z,67.30
2017-06-29T23:41:05.860Z,67.50
2017-06-29T23:43:33.410Z,67.30
2017-06-29T23:46:01.893Z,67.10
2017-06-29T23:48:30.899Z,67.10
2017-06-29T23:50:58.371Z,67.30
2017-06-29T23:53:27.789Z,67.30
2017-06-29T23:55:55.607Z,67.20
2017-06-29T23:58:23.962Z,66.90
